Terminal Aerodrome Forecast
Issued by NWS Portland, OR

Home | Current Version | Previous Version | Text Only | Print | Product List | Glossary On
Versions: 1 2 3 4 5 6 7 8 9 10 11 12 13 14 15 16 17 18 19
000
FTUS46 KPQR 231132
TAFHIO
TAF
KHIO 231132Z 2312/2412 13006KT P6SM -RA SCT020 OVC040
      TEMPO 2313/2317 6SM -RA BKN015
     FM231700 19008KT P6SM -SHRA SCT020 BKN040
     FM240500 16004KT P6SM BKN050=

USA.gov is the U.S. government's official web portal to all federal, state and local government web resources and services.